Terminal Aerodrome Forecast
Issued by NWS

Home | Current Version | Previous Version | Graphics & Text | Print | Product List | Glossary On
Versions: 1 2 3 4 5 6 7 8 9 10 11 12 13 14 15 16 17 18 19 20 21 22 23 24 25 26 27 28 29
000
FTUS41 KCLE 191700
TAFFDY
TAF
KFDY 191740Z 1918/2018 23006KT P6SM SCT030 BKN050
      TEMPO 1918/1922 BKN030
     FM192200 24006KT P6SM VCSH BKN035 OVC100
      TEMPO 1922/2002 4SM TSRA BR OVC025CB
     FM200400 20004KT 6SM BR BKN050
     FM200800 20004KT 4SM BR SCT012 BKN050
      TEMPO 2009/2013 2SM BR BKN012
     FM201400 25006KT P6SM SCT025 BKN120=

USA.gov is the U.S. government's official web portal to all federal, state and local government web resources and services.